Svitzer Sines — CSYI4 — position and weather

sailwx.info

Track history (hours):
 
Tides and Currents Weather Stations Pressure Air Temp Water Temp Dewpoint Dewpoint Depression Visibility Wind Speed Wind Dir Waves Ship Positions

Svitzer Sines

Last reported at 2014-Jul-30 06:34 UTC. Time now 2014-Jul-30 07:02 UTC.
Position N 38°42' W 009°10'.

Length 26 m.

Type: Tug. MMSI: 263601890.

Date/timePositionNaut miles runAvg speedWind from/ knotsBaromVisibWave heightAir tempDewpointWater temp
2014-Jul-30 06:34N 38°42' W 009°10'0 0.0
2014-Jul-30 05:34N 38°42' W 009°10'0 0.0
2014-Jul-30 04:33N 38°42' W 009°10'0 0.0
2014-Jul-30 03:33N 38°42' W 009°10'0 0.0
2014-Jul-30 02:34N 38°42' W 009°10'0 0.0
2014-Jul-30 01:34N 38°42' W 009°10'1 0.9
2014-Jul-30 00:33N 38°41' W 009°10'1 0.6
2014-Jul-29 23:34N 38°41' W 009°11'2 1.6
2014-Jul-29 22:34N 38°42' W 009°10'0 0.0
2014-Jul-29 21:33N 38°42' W 009°10'0 0.0
2014-Jul-29 20:34N 38°42' W 009°10'0 0.0
2014-Jul-29 19:34N 38°42' W 009°10'0 0.0
2014-Jul-29 18:33N 38°42' W 009°10'0 0.0
2014-Jul-29 17:33N 38°42' W 009°10'0 0.0
2014-Jul-29 16:34N 38°42' W 009°10'0 0.0
2014-Jul-29 15:34N 38°42' W 009°10'0 0.0
2014-Jul-29 14:33N 38°42' W 009°10'0 0.3
2014-Jul-29 13:34N 38°42' W 009°10'0 0.3
2014-Jul-29 12:34N 38°42' W 009°10'0 0.0
2014-Jul-29 11:34N 38°42' W 009°10'0 0.0
2014-Jul-29 10:34N 38°42' W 009°10'3 2.5
2014-Jul-29 09:33N 38°41' W 009°12'3 2.6
2014-Jul-29 08:34N 38°42' W 009°10'0 0.0
2014-Jul-29 07:34N 38°42' W 009°10'0 0.0
2014-Jul-29 06:34N 38°42' W 009°10'1 1.4
2014-Jul-29 05:33N 38°41' W 009°11'1 1.5
2014-Jul-29 04:34N 38°42' W 009°10'0 0.0
2014-Jul-29 03:33N 38°42' W 009°10'0 0.0
2014-Jul-29 02:34N 38°42' W 009°10'0 0.0
2014-Jul-29 01:34N 38°42' W 009°10'0 0.0
2014-Jul-29 00:34N 38°42' W 009°10'0 0.0
2014-Jul-28 23:34N 38°42' W 009°10'0 0.0
2014-Jul-28 22:33N 38°42' W 009°10'0 0.0
2014-Jul-28 21:33N 38°42' W 009°10'0 0.0
2014-Jul-28 20:34N 38°42' W 009°10'0 0.0
2014-Jul-28 19:34N 38°42' W 009°10'0 0.0
2014-Jul-28 18:33N 38°42' W 009°10'0 0.0
2014-Jul-28 17:34N 38°42' W 009°10'0 0.0
2014-Jul-28 16:34N 38°42' W 009°10'0 0.0
2014-Jul-28 15:33N 38°42' W 009°10'0 0.0
2014-Jul-28 14:34N 38°42' W 009°10'0 0.0
2014-Jul-28 13:33N 38°42' W 009°10'1 1.1
2014-Jul-28 12:33N 38°41' W 009°11'1 1.1
2014-Jul-28 11:34N 38°42' W 009°10'4 3.5
2014-Jul-28 10:33N 38°41' W 009°14'4 4.3
2014-Jul-28 09:34N 38°41' W 009°08'0 0.5
2014-Jul-28 08:33N 38°41' W 009°08'2 1.5
2014-Jul-28 07:33N 38°42' W 009°09'0 0.3
2014-Jul-28 06:34N 38°42' W 009°10'0 0.0
2014-Jul-28 05:33N 38°42' W 009°10'0 0.0
2014-Jul-28 04:34N 38°42' W 009°10'0 0.0
2014-Jul-28 03:34N 38°42' W 009°10'0 0.0
2014-Jul-28 02:34N 38°42' W 009°10'0 0.0
2014-Jul-28 01:34N 38°42' W 009°10'0 0.0
2014-Jul-28 00:34N 38°42' W 009°10'0 0.0
2014-Jul-27 23:34N 38°42' W 009°10'0 0.0
2014-Jul-27 22:33N 38°42' W 009°10'0 0.0
2014-Jul-27 21:34N 38°42' W 009°10'0 0.0
2014-Jul-27 20:34N 38°42' W 009°10'0 0.0
2014-Jul-27 19:34N 38°42' W 009°10'0 0.0
2014-Jul-27 18:33N 38°42' W 009°10'0 0.0
2014-Jul-27 17:34N 38°42' W 009°10'0 0.0
2014-Jul-27 16:34N 38°42' W 009°10'0 0.0
2014-Jul-27 15:34N 38°42' W 009°10'0 0.0
2014-Jul-27 14:34N 38°42' W 009°10'0 0.0
2014-Jul-27 13:34N 38°42' W 009°10'0 0.0
2014-Jul-27 12:34N 38°42' W 009°10'0 0.0
2014-Jul-27 11:34N 38°42' W 009°10'0 0.0
2014-Jul-27 10:34N 38°42' W 009°10'0 0.0
2014-Jul-27 09:34N 38°42' W 009°10'0 0.0
2014-Jul-27 08:34N 38°42' W 009°10'0 0.0
2014-Jul-27 07:34N 38°42' W 009°10'0 0.0
2014-Jul-27 06:34N 38°42' W 009°10'0 0.0
2014-Jul-27 05:34N 38°42' W 009°10'0 0.0
2014-Jul-27 04:34N 38°42' W 009°10'0 0.0
2014-Jul-27 03:34N 38°42' W 009°10'0 0.0
2014-Jul-27 02:34N 38°42' W 009°10'0 0.0
2014-Jul-27 01:33N 38°42' W 009°10'0 0.0
2014-Jul-27 00:33N 38°42' W 009°10'0 0.0
2014-Jul-26 23:33N 38°42' W 009°10'0 0.0
2014-Jul-26 22:34N 38°42' W 009°10'0 0.0
2014-Jul-26 21:34N 38°42' W 009°10'0 0.0
2014-Jul-26 20:34N 38°42' W 009°10'0 0.0
2014-Jul-26 19:34N 38°42' W 009°10'0 0.0
2014-Jul-26 18:33N 38°42' W 009°10'0 0.0
2014-Jul-26 17:34N 38°42' W 009°10'0 0.0
2014-Jul-26 16:33N 38°42' W 009°10'0 0.0
2014-Jul-26 15:34N 38°42' W 009°10'0 0.0
2014-Jul-26 14:34N 38°42' W 009°10'2 1.6
2014-Jul-26 13:34N 38°42' W 009°08'0 0.1
2014-Jul-26 12:15N 38°42' W 009°07'2 3.6
2014-Jul-26 11:34N 38°42' W 009°11'1 0.8
2014-Jul-26 10:34N 38°42' W 009°10'0 0.1
2014-Jul-26 09:34N 38°42' W 009°10'0 0.0
2014-Jul-26 08:33N 38°42' W 009°10'0 0.0
2014-Jul-26 07:34N 38°42' W 009°10'0 0.0
2014-Jul-26 06:33N 38°42' W 009°10'0 0.4
2014-Jul-26 05:34N 38°42' W 009°10'0 0.4
2014-Jul-26 04:33N 38°42' W 009°10'0 0.0
2014-Jul-26 03:34N 38°42' W 009°10'0 0.0
2014-Jul-26 02:34N 38°42' W 009°10'0 0.0
2014-Jul-26 01:34N 38°42' W 009°10'3 3.1
2014-Jul-26 00:33N 38°41' W 009°06'0 0.4
2014-Jul-25 23:24N 38°41' W 009°06'3 4.1
2014-Jul-25 22:34N 38°42' W 009°10'0 0.0
2014-Jul-25 21:34N 38°42' W 009°10'1 0.4
2014-Jul-25 19:34N 38°42' W 009°11'1 0.9
2014-Jul-25 18:33N 38°42' W 009°10'0 0.0
2014-Jul-25 17:34N 38°42' W 009°10'0 0.0
2014-Jul-25 16:34N 38°42' W 009°10'0 0.0
2014-Jul-25 15:34N 38°42' W 009°10'0 0.2
2014-Jul-25 14:34N 38°42' W 009°10'2 2.1
2014-Jul-25 13:26N 38°41' W 009°12'1 1.3
2014-Jul-25 12:33N 38°41' W 009°11'4 4.2
2014-Jul-25 11:32N 38°43' W 009°07'2 2.2
2014-Jul-25 10:33N 38°42' W 009°09'1 0.8
2014-Jul-25 09:34N 38°42' W 009°10'0 0.0
2014-Jul-25 08:34N 38°42' W 009°10'0 0.0
2014-Jul-25 07:34N 38°42' W 009°10'0 0.0
2014-Jul-25 06:34N 38°42' W 009°10'0 0.0
2014-Jul-25 05:33N 38°42' W 009°10'0 0.0
2014-Jul-25 04:34N 38°42' W 009°10'0 0.0
2014-Jul-25 03:34N 38°42' W 009°10'0 0.0
2014-Jul-25 02:34N 38°42' W 009°10'0 0.0
2014-Jul-24 23:34N 38°42' W 009°10'0 0.0
2014-Jul-24 22:34N 38°42' W 009°10'0 0.0
2014-Jul-24 21:34N 38°42' W 009°10'1 1.4
2014-Jul-24 20:34N 38°41' W 009°08'1 1.4
2014-Jul-24 19:34N 38°42' W 009°10'0 0.0
2014-Jul-24 18:34N 38°42' W 009°10'0 0.0
2014-Jul-24 17:34N 38°42' W 009°10'2 1.6
2014-Jul-24 16:34N 38°43' W 009°08'3 0.2
2014-Jul-23 23:04N 38°41' W 009°04'6 0.5
2014-Jul-23 12:12N 38°41' W 009°11'0 0.0
2014-Jul-23 11:31N 38°41' W 009°11'6 0.1
2014-Jul-21 10:18N 38°41' W 009°04'3 0.2
2014-Jul-20 17:18N 38°44' W 009°06'1 1.3
2014-Jul-20 16:24N 38°43' W 009°07'1 0.2
2014-Jul-20 10:14N 38°43' W 009°06'  
Track history (hours):
 
Tides and Currents Weather Stations Pressure Air Temp Water Temp Dewpoint Dewpoint Depression Visibility Wind Speed Wind Dir Waves Ship Positions

Svitzer Sines

Last reported at 2014-Jul-30 06:34 UTC. Time now 2014-Jul-30 07:02 UTC.
Position N 38°42' W 009°10'.

Length 26 m.

Type: Tug. MMSI: 263601890.

Date/timePositionNaut miles runAvg speedWind from/ knotsBaromVisibWave heightAir tempDewpointWater temp
2014-Jul-30 06:34N 38°42' W 009°10'0 0.0
2014-Jul-30 05:34N 38°42' W 009°10'0 0.0
2014-Jul-30 04:33N 38°42' W 009°10'0 0.0
2014-Jul-30 03:33N 38°42' W 009°10'0 0.0
2014-Jul-30 02:34N 38°42' W 009°10'0 0.0
2014-Jul-30 01:34N 38°42' W 009°10'1 0.9
2014-Jul-30 00:33N 38°41' W 009°10'1 0.6
2014-Jul-29 23:34N 38°41' W 009°11'2 1.6
2014-Jul-29 22:34N 38°42' W 009°10'0 0.0
2014-Jul-29 21:33N 38°42' W 009°10'0 0.0
2014-Jul-29 20:34N 38°42' W 009°10'0 0.0
2014-Jul-29 19:34N 38°42' W 009°10'0 0.0
2014-Jul-29 18:33N 38°42' W 009°10'0 0.0
2014-Jul-29 17:33N 38°42' W 009°10'0 0.0
2014-Jul-29 16:34N 38°42' W 009°10'0 0.0
2014-Jul-29 15:34N 38°42' W 009°10'0 0.0
2014-Jul-29 14:33N 38°42' W 009°10'0 0.3
2014-Jul-29 13:34N 38°42' W 009°10'0 0.3
2014-Jul-29 12:34N 38°42' W 009°10'0 0.0
2014-Jul-29 11:34N 38°42' W 009°10'0 0.0
2014-Jul-29 10:34N 38°42' W 009°10'3 2.5
2014-Jul-29 09:33N 38°41' W 009°12'3 2.6
2014-Jul-29 08:34N 38°42' W 009°10'0 0.0
2014-Jul-29 07:34N 38°42' W 009°10'0 0.0
2014-Jul-29 06:34N 38°42' W 009°10'1 1.4
2014-Jul-29 05:33N 38°41' W 009°11'1 1.5
2014-Jul-29 04:34N 38°42' W 009°10'0 0.0
2014-Jul-29 03:33N 38°42' W 009°10'0 0.0
2014-Jul-29 02:34N 38°42' W 009°10'0 0.0
2014-Jul-29 01:34N 38°42' W 009°10'0 0.0
2014-Jul-29 00:34N 38°42' W 009°10'0 0.0
2014-Jul-28 23:34N 38°42' W 009°10'0 0.0
2014-Jul-28 22:33N 38°42' W 009°10'0 0.0
2014-Jul-28 21:33N 38°42' W 009°10'0 0.0
2014-Jul-28 20:34N 38°42' W 009°10'0 0.0
2014-Jul-28 19:34N 38°42' W 009°10'0 0.0
2014-Jul-28 18:33N 38°42' W 009°10'0 0.0
2014-Jul-28 17:34N 38°42' W 009°10'0 0.0
2014-Jul-28 16:34N 38°42' W 009°10'0 0.0
2014-Jul-28 15:33N 38°42' W 009°10'0 0.0
2014-Jul-28 14:34N 38°42' W 009°10'0 0.0
2014-Jul-28 13:33N 38°42' W 009°10'1 1.1
2014-Jul-28 12:33N 38°41' W 009°11'1 1.1
2014-Jul-28 11:34N 38°42' W 009°10'4 3.5
2014-Jul-28 10:33N 38°41' W 009°14'4 4.3
2014-Jul-28 09:34N 38°41' W 009°08'0 0.5
2014-Jul-28 08:33N 38°41' W 009°08'2 1.5
2014-Jul-28 07:33N 38°42' W 009°09'0 0.3
2014-Jul-28 06:34N 38°42' W 009°10'0 0.0
2014-Jul-28 05:33N 38°42' W 009°10'0 0.0
2014-Jul-28 04:34N 38°42' W 009°10'0 0.0
2014-Jul-28 03:34N 38°42' W 009°10'0 0.0
2014-Jul-28 02:34N 38°42' W 009°10'0 0.0
2014-Jul-28 01:34N 38°42' W 009°10'0 0.0
2014-Jul-28 00:34N 38°42' W 009°10'0 0.0
2014-Jul-27 23:34N 38°42' W 009°10'0 0.0
2014-Jul-27 22:33N 38°42' W 009°10'0 0.0
2014-Jul-27 21:34N 38°42' W 009°10'0 0.0
2014-Jul-27 20:34N 38°42' W 009°10'0 0.0
2014-Jul-27 19:34N 38°42' W 009°10'0 0.0
2014-Jul-27 18:33N 38°42' W 009°10'0 0.0
2014-Jul-27 17:34N 38°42' W 009°10'0 0.0
2014-Jul-27 16:34N 38°42' W 009°10'0 0.0
2014-Jul-27 15:34N 38°42' W 009°10'0 0.0
2014-Jul-27 14:34N 38°42' W 009°10'0 0.0
2014-Jul-27 13:34N 38°42' W 009°10'0 0.0
2014-Jul-27 12:34N 38°42' W 009°10'0 0.0
2014-Jul-27 11:34N 38°42' W 009°10'0 0.0
2014-Jul-27 10:34N 38°42' W 009°10'0 0.0
2014-Jul-27 09:34N 38°42' W 009°10'0 0.0
2014-Jul-27 08:34N 38°42' W 009°10'0 0.0
2014-Jul-27 07:34N 38°42' W 009°10'0 0.0
2014-Jul-27 06:34N 38°42' W 009°10'0 0.0
2014-Jul-27 05:34N 38°42' W 009°10'0 0.0
2014-Jul-27 04:34N 38°42' W 009°10'0 0.0
2014-Jul-27 03:34N 38°42' W 009°10'0 0.0
2014-Jul-27 02:34N 38°42' W 009°10'0 0.0
2014-Jul-27 01:33N 38°42' W 009°10'0 0.0
2014-Jul-27 00:33N 38°42' W 009°10'0 0.0
2014-Jul-26 23:33N 38°42' W 009°10'0 0.0
2014-Jul-26 22:34N 38°42' W 009°10'0 0.0
2014-Jul-26 21:34N 38°42' W 009°10'0 0.0
2014-Jul-26 20:34N 38°42' W 009°10'0 0.0
2014-Jul-26 19:34N 38°42' W 009°10'0 0.0
2014-Jul-26 18:33N 38°42' W 009°10'0 0.0
2014-Jul-26 17:34N 38°42' W 009°10'0 0.0
2014-Jul-26 16:33N 38°42' W 009°10'0 0.0
2014-Jul-26 15:34N 38°42' W 009°10'0 0.0
2014-Jul-26 14:34N 38°42' W 009°10'2 1.6
2014-Jul-26 13:34N 38°42' W 009°08'0 0.1
2014-Jul-26 12:15N 38°42' W 009°07'2 3.6
2014-Jul-26 11:34N 38°42' W 009°11'1 0.8
2014-Jul-26 10:34N 38°42' W 009°10'0 0.1
2014-Jul-26 09:34N 38°42' W 009°10'0 0.0
2014-Jul-26 08:33N 38°42' W 009°10'0 0.0
2014-Jul-26 07:34N 38°42' W 009°10'0 0.0
2014-Jul-26 06:33N 38°42' W 009°10'0 0.4
2014-Jul-26 05:34N 38°42' W 009°10'0 0.4
2014-Jul-26 04:33N 38°42' W 009°10'0 0.0
2014-Jul-26 03:34N 38°42' W 009°10'0 0.0
2014-Jul-26 02:34N 38°42' W 009°10'0 0.0
2014-Jul-26 01:34N 38°42' W 009°10'3 3.1
2014-Jul-26 00:33N 38°41' W 009°06'0 0.4
2014-Jul-25 23:24N 38°41' W 009°06'3 4.1
2014-Jul-25 22:34N 38°42' W 009°10'0 0.0
2014-Jul-25 21:34N 38°42' W 009°10'1 0.4
2014-Jul-25 19:34N 38°42' W 009°11'1 0.9
2014-Jul-25 18:33N 38°42' W 009°10'0 0.0
2014-Jul-25 17:34N 38°42' W 009°10'0 0.0
2014-Jul-25 16:34N 38°42' W 009°10'0 0.0
2014-Jul-25 15:34N 38°42' W 009°10'0 0.2
2014-Jul-25 14:34N 38°42' W 009°10'2 2.1
2014-Jul-25 13:26N 38°41' W 009°12'1 1.3
2014-Jul-25 12:33N 38°41' W 009°11'4 4.2
2014-Jul-25 11:32N 38°43' W 009°07'2 2.2
2014-Jul-25 10:33N 38°42' W 009°09'1 0.8
2014-Jul-25 09:34N 38°42' W 009°10'0 0.0
2014-Jul-25 08:34N 38°42' W 009°10'0 0.0
2014-Jul-25 07:34N 38°42' W 009°10'0 0.0
2014-Jul-25 06:34N 38°42' W 009°10'0 0.0
2014-Jul-25 05:33N 38°42' W 009°10'0 0.0
2014-Jul-25 04:34N 38°42' W 009°10'0 0.0
2014-Jul-25 03:34N 38°42' W 009°10'0 0.0
2014-Jul-25 02:34N 38°42' W 009°10'0 0.0
2014-Jul-24 23:34N 38°42' W 009°10'0 0.0
2014-Jul-24 22:34N 38°42' W 009°10'0 0.0
2014-Jul-24 21:34N 38°42' W 009°10'1 1.4
2014-Jul-24 20:34N 38°41' W 009°08'1 1.4
2014-Jul-24 19:34N 38°42' W 009°10'0 0.0
2014-Jul-24 18:34N 38°42' W 009°10'0 0.0
2014-Jul-24 17:34N 38°42' W 009°10'2 1.6
2014-Jul-24 16:34N 38°43' W 009°08'3 0.2
2014-Jul-23 23:04N 38°41' W 009°04'6 0.5
2014-Jul-23 12:12N 38°41' W 009°11'0 0.0
2014-Jul-23 11:31N 38°41' W 009°11'6 0.1
2014-Jul-21 10:18N 38°41' W 009°04'3 0.2
2014-Jul-20 17:18N 38°44' W 009°06'1 1.3
2014-Jul-20 16:24N 38°43' W 009°07'1 0.2
2014-Jul-20 10:14N 38°43' W 009°06'  

Dump ship's entire track history